Time;durP1;ratioP1;P1;durP2;ratioP2;P2;SDS_P1;SDS_P2;PMS_P1;PMS_P2;Temp;Humidity;BMP_temperature;BMP_pressure;BME280_temperature;BME280_humidity;BME280_pressure;Samples;Min_cycle;Max_cycle;Signal;HPM_P1;HPM_P2
2022/12/21 00:01:37;;;;;;;0.73;0.73;;;10.90;99.90;;;10.90;100.00;100521.78;5123917;28;20077;-71
2022/12/21 00:04:10;;;;;;;1.02;0.80;;;10.90;99.90;;;10.89;100.00;100514.81;5123650;29;20146;-71
2022/12/21 00:06:43;;;;;;;0.80;0.80;;;10.90;99.90;;;10.89;100.00;100512.19;5123335;28;20050;-71
2022/12/21 00:09:16;;;;;;;0.90;0.90;;;10.90;99.90;;;10.88;100.00;100507.81;5167500;23;20071;-83
2022/12/21 00:11:48;;;;;;;0.75;0.75;;;10.90;99.90;;;10.88;100.00;100513.03;5229773;28;20045;-82
2022/12/21 00:14:20;;;;;;;0.82;0.82;;;10.90;99.90;;;10.88;100.00;100518.22;5234390;28;20445;-83
2022/12/21 00:16:52;;;;;;;0.68;0.68;;;10.80;99.90;;;10.87;100.00;100521.69;5230830;28;20414;-82
2022/12/21 00:19:25;;;;;;;0.90;0.70;;;10.80;99.90;;;10.86;100.00;100519.91;5224813;28;20033;-81
2022/12/21 00:21:58;;;;;;;0.60;0.60;;;10.80;99.90;;;10.86;100.00;100514.72;5213503;28;20053;-80
2022/12/21 00:24:30;;;;;;;0.60;0.55;;;10.80;99.90;;;10.81;100.00;100521.50;5217714;28;20049;-82
2022/12/21 00:27:03;;;;;;;0.90;0.75;;;10.80;99.90;;;10.80;100.00;100519.75;5195196;28;20129;-82
2022/12/21 00:29:35;;;;;;;0.80;0.70;;;10.80;99.90;;;10.79;100.00;100521.47;5223981;28;20507;-83
2022/12/21 00:32:07;;;;;;;0.80;0.60;;;10.80;99.90;;;10.79;100.00;100512.75;5218911;28;20101;-82
2022/12/21 00:34:39;;;;;;;0.70;0.60;;;10.70;99.90;;;10.76;100.00;100512.69;5234194;28;20140;-81
2022/12/21 00:37:13;;;;;;;2.03;1.42;;;10.70;99.90;;;10.72;100.00;100508.22;5217288;28;20054;-82
2022/12/21 00:39:45;;;;;;;1.08;0.98;;;10.70;99.90;;;10.71;100.00;100503.84;5215323;28;20045;-84
2022/12/21 00:42:17;;;;;;;1.48;1.00;;;10.70;99.90;;;10.68;100.00;100499.41;5214443;28;20046;-82
2022/12/21 00:44:49;;;;;;;1.98;1.45;;;10.70;99.90;;;10.66;100.00;100495.00;5217353;28;20045;-82
2022/12/21 00:47:21;;;;;;;2.83;1.38;;;10.70;99.90;;;10.65;100.00;100488.00;5214919;28;20053;-83
2022/12/21 00:49:53;;;;;;;4.85;2.13;;;10.70;99.90;;;10.64;100.00;100496.69;5214960;28;20056;-84
2022/12/21 00:52:28;;;;;;;3.88;1.90;;;10.60;99.90;;;10.63;100.00;100495.81;5214857;28;20527;-82
2022/12/21 00:55:00;;;;;;;3.40;1.65;;;10.70;99.90;;;10.63;100.00;100494.88;5215073;28;20106;-81
2022/12/21 00:57:32;;;;;;;4.13;1.33;;;10.60;99.90;;;10.62;100.00;100499.22;5230848;28;20076;-81
2022/12/21 01:00:05;;;;;;;3.50;1.40;;;10.60;99.90;;;10.59;100.00;100499.13;5216556;28;20046;-82
2022/12/21 01:02:37;;;;;;;2.70;1.33;;;10.60;99.90;;;10.56;100.00;100501.63;5215618;28;20443;-84
2022/12/21 01:05:10;;;;;;;1.58;0.95;;;10.60;99.90;;;10.55;100.00;100503.34;5215928;28;20435;-83
2022/12/21 01:07:43;;;;;;;1.27;0.82;;;10.50;99.90;;;10.50;100.00;100512.78;5216787;28;20045;-83
2022/12/21 01:10:15;;;;;;;2.33;1.05;;;10.50;99.90;;;10.49;100.00;100513.59;5233843;28;20045;-81
2022/12/21 01:12:48;;;;;;;2.58;1.30;;;10.50;99.90;;;10.47;100.00;100511.78;5216491;28;20046;-82
2022/12/21 01:15:20;;;;;;;1.15;0.90;;;10.50;99.90;;;10.44;100.00;100510.00;5233736;28;20060;-83
2022/12/21 01:17:53;;;;;;;1.63;1.10;;;10.40;99.90;;;10.43;100.00;100518.66;5220649;28;20053;-84
2022/12/21 01:20:25;;;;;;;1.45;0.85;;;10.40;99.90;;;10.41;100.00;100525.50;5225880;28;20068;-83
2022/12/21 01:22:59;;;;;;;2.53;1.23;;;10.40;99.90;;;10.39;100.00;100521.09;5240559;28;20045;-83
2022/12/21 01:25:31;;;;;;;2.25;0.82;;;10.40;99.90;;;10.36;100.00;100516.66;5216530;28;20144;-81
2022/12/21 01:28:04;;;;;;;1.55;0.90;;;10.40;99.90;;;10.35;100.00;100519.22;5214178;28;20054;-81
2022/12/21 01:30:38;;;;;;;2.08;0.80;;;10.30;99.90;;;10.34;100.00;100523.56;5212456;28;20586;-81
2022/12/21 01:33:15;;;;;;;1.98;0.90;;;10.30;99.90;;;10.31;100.00;100513.94;5214140;28;20481;-81
2022/12/21 01:35:47;;;;;;;1.00;0.85;;;10.30;99.90;;;10.32;100.00;100525.25;5214316;28;20045;-82
2022/12/21 01:38:21;;;;;;;1.50;0.80;;;10.30;99.90;;;10.33;100.00;100522.69;5218608;28;20050;-82
2022/12/21 01:40:54;;;;;;;1.98;0.80;;;10.30;99.90;;;10.35;100.00;100529.66;5217334;28;20396;-80
2022/12/21 01:43:46;;;;;;;1.42;0.90;;;10.30;99.90;;;10.37;100.00;100534.09;5218352;28;20424;-79
2022/12/21 01:46:25;;;;;;;0.85;0.63;;;10.30;99.90;;;10.39;100.00;100537.63;5219007;28;20090;-82
2022/12/21 01:49:09;;;;;;;1.42;1.10;;;10.40;99.90;;;10.41;100.00;100538.53;5216147;28;20049;-82
2022/12/21 01:51:43;;;;;;;1.75;0.88;;;10.40;99.90;;;10.42;100.00;100548.13;5218936;28;20045;-81
2022/12/21 01:54:22;;;;;;;1.52;1.00;;;10.40;99.90;;;10.43;100.00;100535.97;5217640;28;20045;-80
2022/12/21 01:56:58;;;;;;;1.30;0.98;;;10.40;99.90;;;10.43;100.00;100534.28;5216984;28;20041;-84
2022/12/21 01:59:33;;;;;;;1.27;0.90;;;10.40;99.90;;;10.41;100.00;100535.94;5216117;28;20144;-82
2022/12/21 02:02:11;;;;;;;0.77;0.75;;;10.40;99.90;;;10.39;100.00;100531.53;5218488;28;20049;-83
2022/12/21 02:04:45;;;;;;;0.60;0.60;;;10.40;99.90;;;10.34;100.00;100533.97;5217107;28;20056;-83
2022/12/21 02:07:18;;;;;;;0.75;0.63;;;10.30;99.90;;;10.34;100.00;100533.97;5218258;28;20521;-82
2022/12/21 02:09:53;;;;;;;1.08;0.80;;;10.30;99.90;;;10.31;100.00;100539.09;5233102;28;20550;-82
2022/12/21 02:12:27;;;;;;;0.95;0.60;;;10.30;99.90;;;10.28;100.00;100539.00;5217713;28;20084;-82
2022/12/21 02:15:00;;;;;;;;;;;10.30;99.90;;;10.25;100.00;100546.72;5217803;28;20037;-82
2022/12/21 02:17:45;;;;;;;1.02;0.80;;;10.30;99.90;;;10.24;100.00;100547.56;5217077;28;19943;-82
2022/12/21 02:20:53;;;;;;;0.70;0.63;;;10.20;99.90;;;10.22;100.00;100544.84;5218546;28;20100;-84
2022/12/21 02:24:01;;;;;;;1.08;0.82;;;10.20;99.90;;;10.21;100.00;100537.88;5217491;28;20045;-79
2022/12/21 02:26:56;;;;;;;1.95;1.45;;;10.20;99.90;;;10.19;100.00;100533.47;5216945;28;20056;-83
2022/12/21 02:30:04;;;;;;;1.60;0.90;;;10.20;99.90;;;10.20;100.00;100535.22;5216907;28;20503;-82
2022/12/21 02:33:08;;;;;;;0.73;0.73;;;10.20;99.90;;;10.19;100.00;100536.06;5231092;28;20058;-83
2022/12/21 02:35:55;;;;;;;0.95;0.68;;;10.20;99.90;;;10.17;100.00;100540.31;5216149;28;20423;-82
2022/12/21 02:38:42;;;;;;;0.85;0.80;;;10.20;99.90;;;10.18;100.00;100531.69;5218322;28;20041;-82
2022/12/21 02:41:36;;;;;;;1.15;0.90;;;10.20;99.90;;;10.15;100.00;100537.69;5237121;28;20041;-79
2022/12/21 02:44:24;;;;;;;1.08;0.80;;;10.20;99.90;;;10.16;100.00;100538.56;5227121;28;20064;-84
2022/12/21 02:47:05;;;;;;;0.63;0.60;;;10.20;99.90;;;10.12;100.00;100542.81;5233295;28;20053;-83
2022/12/21 02:49:47;;;;;;;0.63;0.50;;;10.20;99.90;;;10.10;100.00;100538.34;5214694;28;20107;-82
2022/12/21 02:52:28;;;;;;;0.55;0.55;;;10.10;99.90;;;10.12;100.00;100541.94;5216532;28;20056;-83
2022/12/21 02:55:01;;;;;;;0.68;0.68;;;10.10;99.90;;;10.11;100.00;100537.56;5217376;28;20053;-82
2022/12/21 02:57:39;;;;;;;0.95;0.60;;;10.10;99.90;;;10.10;100.00;100543.56;5218425;28;20061;-83
2022/12/21 03:00:17;;;;;;;1.48;0.60;;;10.10;99.90;;;10.07;100.00;100529.63;5221500;28;20041;-80
2022/12/21 03:06:26;;;;;;;0.70;0.70;;;10.10;99.90;;;10.03;100.00;100543.38;5233319;28;20041;-82
2022/12/21 03:09:13;;;;;;;0.50;0.50;;;10.00;99.90;;;10.03;100.00;100543.38;5217304;28;20060;-81
2022/12/21 03:11:55;;;;;;;1.02;0.63;;;10.00;99.90;;;10.03;100.00;100534.66;5217415;28;20057;-81
2022/12/21 03:14:42;;;;;;;0.80;0.70;;;10.00;99.90;;;10.05;100.00;100520.88;5217616;28;20069;-81
2022/12/21 03:17:22;;;;;;;1.80;1.23;;;10.00;99.90;;;10.06;100.00;100527.84;5234216;28;20037;-81
2022/12/21 03:20:01;;;;;;;1.40;0.93;;;10.10;99.90;;;10.10;100.00;100509.72;5216931;28;20076;-80
2022/12/21 03:22:42;;;;;;;1.38;0.90;;;10.10;99.90;;;10.10;100.00;100522.72;5215854;28;20041;-81
2022/12/21 03:25:22;;;;;;;1.10;0.70;;;10.10;99.90;;;10.09;100.00;100521.84;5233603;28;20065;-80
2022/12/21 03:28:01;;;;;;;1.10;0.70;;;10.10;99.90;;;10.09;100.00;100527.06;5218155;28;20113;-81
2022/12/21 03:30:42;;;;;;;0.65;0.63;;;10.10;99.90;;;10.09;100.00;100516.66;5217498;28;20116;-82
2022/12/21 03:33:19;;;;;;;0.95;0.80;;;10.10;99.90;;;10.12;100.00;100510.66;5217668;28;20049;-82
2022/12/21 03:35:56;;;;;;;1.42;0.93;;;10.10;99.90;;;10.14;100.00;100514.19;5232648;28;20068;-83
2022/12/21 03:38:36;;;;;;;2.03;1.38;;;10.10;99.90;;;10.13;100.00;100502.00;5214823;28;20056;-81
2022/12/21 03:41:17;;;;;;;1.85;1.40;;;10.10;99.90;;;10.14;100.00;100509.00;5218039;28;20052;-82
2022/12/21 03:43:52;;;;;;;3.13;1.73;;;10.20;99.90;;;10.13;100.00;100502.00;5218255;28;20052;-82
2022/12/21 03:46:30;;;;;;;2.80;1.45;;;10.10;99.90;;;10.14;100.00;100498.56;5216793;28;20525;-80
2022/12/21 03:49:08;;;;;;;2.38;1.50;;;10.20;99.90;;;10.15;100.00;100495.13;5233518;28;20404;-81
2022/12/21 03:51:47;;;;;;;2.45;1.45;;;10.20;99.90;;;10.17;100.00;100485.63;5217636;28;20056;-80
2022/12/21 03:54:29;;;;;;;1.98;1.10;;;10.20;99.90;;;10.17;100.00;100493.44;5218586;28;20045;-81
2022/12/21 03:57:01;;;;;;;1.30;0.95;;;10.20;99.90;;;10.17;100.00;100488.22;5234336;28;20053;-81
2022/12/21 03:59:33;;;;;;;1.77;1.00;;;10.20;99.90;;;10.15;100.00;100480.38;5216657;28;20049;-82
2022/12/21 04:02:13;;;;;;;0.82;0.80;;;10.20;99.90;;;10.12;100.00;100475.09;5218864;28;20052;-80
2022/12/21 04:04:54;;;;;;;1.13;0.80;;;10.10;99.90;;;10.10;100.00;100486.28;5218245;28;20045;-82
2022/12/21 04:07:28;;;;;;;1.05;0.65;;;10.10;99.90;;;10.06;100.00;100477.50;5214611;28;20057;-82
2022/12/21 04:10:07;;;;;;;1.38;0.90;;;10.10;99.90;;;10.03;100.00;100477.38;5216195;28;20049;-81
2022/12/21 04:12:40;;;;;;;0.70;0.70;;;10.10;99.90;;;10.03;100.00;100469.56;5217904;28;20052;-82
2022/12/21 04:15:17;;;;;;;1.38;0.90;;;10.00;99.90;;;10.01;100.00;100472.13;5215612;28;20152;-81
2022/12/21 04:17:52;;;;;;;0.65;0.65;;;10.00;99.90;;;10.03;100.00;100470.44;5216380;28;20049;-82
2022/12/21 04:20:24;;;;;;;0.68;0.65;;;10.00;99.90;;;10.04;100.00;100473.94;5216647;28;20041;-82
2022/12/21 04:28:41;;;;;;;1.13;0.70;;;10.00;99.90;;;10.03;100.00;100472.16;5197611;28;20046;-81
2022/12/21 04:31:13;;;;;;;0.95;0.73;;;10.00;99.90;;;10.01;100.00;100464.31;5197826;28;20046;-82
2022/12/21 04:33:45;;;;;;;1.52;1.02;;;10.00;99.90;;;10.03;100.00;100464.38;5197439;28;20034;-82
2022/12/21 04:39:07;;;;;;;1.25;0.80;;;10.00;99.90;;;10.00;100.00;100467.75;5196895;28;20038;-82
2022/12/21 04:41:40;;;;;;;0.77;0.68;;;10.00;99.90;;;10.01;100.00;100466.94;5196599;28;20046;-82
2022/12/21 04:44:12;;;;;;;1.08;0.80;;;10.00;99.90;;;10.01;100.00;100466.94;5195963;28;20380;-82
2022/12/21 04:46:45;;;;;;;1.10;0.70;;;10.00;99.90;;;9.99;100.00;100473.81;5195380;28;20046;-83
2022/12/21 04:49:17;;;;;;;1.23;0.75;;;10.00;99.90;;;9.98;100.00;100459.03;5211136;28;20129;-83
2022/12/21 04:51:49;;;;;;;0.85;0.65;;;10.00;99.90;;;9.97;100.00;100454.63;5195189;28;20054;-83
2022/12/21 04:54:21;;;;;;;0.70;0.70;;;10.00;99.90;;;9.96;100.00;100465.00;5196876;28;20427;-83
2022/12/21 04:56:55;;;;;;;1.55;1.45;;;10.00;99.90;;;9.96;100.00;100465.88;5196908;28;20050;-84
2022/12/21 04:59:27;;;;;;;0.93;0.68;;;10.00;99.90;;;9.94;100.00;100457.16;5195848;28;20046;-82
2022/12/21 05:01:59;;;;;;;0.65;0.65;;;10.00;99.90;;;9.91;100.00;100459.69;5214098;28;20057;-81
2022/12/21 05:04:31;;;;;;;0.50;0.50;;;9.90;99.90;;;9.90;100.00;100457.88;5198633;28;20045;-84
2022/12/21 05:07:04;;;;;;;0.60;0.47;;;9.90;99.90;;;9.89;100.00;100461.31;5196270;28;20042;-84
2022/12/21 05:09:36;;;;;;;0.55;0.55;;;9.90;99.90;;;9.87;100.00;100455.19;5213001;28;20046;-83
2022/12/21 05:12:09;;;;;;;0.80;0.57;;;9.90;99.90;;;9.86;100.00;100456.03;5216923;28;20077;-81
2022/12/21 05:14:41;;;;;;;0.63;0.43;;;9.90;99.90;;;9.84;100.00;100462.00;5201420;28;20042;-81
2022/12/21 05:17:14;;;;;;;0.38;0.38;;;9.80;99.90;;;9.80;100.00;100461.03;5202412;28;20052;-81
2022/12/21 05:19:47;;;;;;;0.50;0.50;;;9.80;99.90;;;9.78;100.00;100462.72;5217103;28;20066;-81
2022/12/21 05:22:19;;;;;;;0.30;0.30;;;9.70;99.90;;;9.77;100.00;100460.91;5201606;28;20158;-84
2022/12/21 05:24:51;;;;;;;0.50;0.50;;;9.70;99.90;;;9.76;100.00;100460.03;5218211;28;20137;-82
2022/12/21 05:27:25;;;;;;;0.30;0.30;;;9.70;99.90;;;9.73;100.00;100448.66;5217886;28;20389;-81
2022/12/21 05:29:57;;;;;;;0.40;0.40;;;9.70;99.90;;;9.72;100.00;100442.56;5217442;28;20046;-84
2022/12/21 05:32:29;;;;;;;0.45;0.40;;;9.70;99.90;;;9.76;100.00;100449.63;5202543;28;20431;-84
2022/12/21 05:35:01;;;;;;;1.33;0.80;;;9.70;99.90;;;9.76;100.00;100451.34;5200278;28;20042;-83
2022/12/21 05:37:33;;;;;;;0.70;0.70;;;9.70;99.90;;;9.81;100.00;100460.19;5217356;28;20042;-84
2022/12/21 05:40:07;;;;;;;0.45;0.45;;;9.80;99.90;;;9.81;100.00;100460.19;5200637;28;20090;-83
2022/12/21 05:42:41;;;;;;;0.45;0.43;;;9.80;99.90;;;9.81;100.00;100449.78;5218225;28;20045;-83
2022/12/21 05:45:13;;;;;;;1.00;0.82;;;9.80;99.90;;;9.79;100.00;100454.06;5200624;28;20062;-82
2022/12/21 05:47:46;;;;;;;0.55;0.50;;;9.80;99.90;;;9.78;100.00;100449.69;5217584;28;20065;-84
2022/12/21 05:50:18;;;;;;;0.70;0.52;;;9.80;99.90;;;9.77;100.00;100447.91;5201798;28;20165;-82
2022/12/21 05:52:51;;;;;;;2.45;1.20;;;9.70;99.90;;;9.74;100.00;100445.22;5200480;28;20042;-82
2022/12/21 05:55:23;;;;;;;4.97;2.28;;;9.70;99.90;;;9.77;100.00;100440.97;5203018;28;20046;-83
2022/12/21 05:57:57;;;;;;;4.63;1.90;;;9.80;99.90;;;9.81;100.00;100435.88;5200206;28;20440;-83
2022/12/21 06:00:29;;;;;;;8.68;3.10;;;9.80;99.90;;;9.82;100.00;100430.72;5201721;28;20038;-83
2022/12/21 06:03:01;;;;;;;5.32;2.20;;;9.80;99.90;;;9.82;100.00;100433.31;5201233;28;20054;-85
2022/12/21 06:05:35;;;;;;;5.22;2.15;;;9.80;99.90;;;9.81;100.00;100430.69;5216913;28;20115;-81
2022/12/21 06:08:07;;;;;;;5.32;2.22;;;9.80;99.90;;;9.79;100.00;100441.06;5201421;28;20056;-83
2022/12/21 06:10:39;;;;;;;4.32;1.88;;;9.80;99.90;;;9.76;100.00;100435.72;5288439;22;20477;-70
2022/12/21 06:13:13;;;;;;;5.32;2.33;;;9.80;99.90;;;9.75;100.00;100439.19;5165658;28;20061;-71
2022/12/21 06:15:45;;;;;;;4.80;2.08;;;9.70;99.90;;;9.78;100.00;100439.28;5165938;28;20154;-70
2022/12/21 06:18:17;;;;;;;4.35;1.92;;;9.80;99.90;;;9.80;100.00;100445.41;5164962;28;20043;-70
2022/12/21 06:20:52;;;;;;;3.83;1.83;;;9.80;99.90;;;9.80;100.00;100442.81;5180946;28;20419;-70
2022/12/21 06:23:25;;;;;;;4.03;1.60;;;9.80;99.90;;;9.79;100.00;100438.44;5164753;28;20461;-72
2022/12/21 06:25:58;;;;;;;2.45;1.45;;;9.80;99.90;;;9.77;100.00;100447.91;5165911;28;20046;-72
2022/12/21 06:28:33;;;;;;;4.70;1.75;;;9.80;99.90;;;9.75;100.00;100444.38;5165903;28;20117;-70
2022/12/21 06:31:08;;;;;;;3.60;1.75;;;9.70;99.90;;;9.72;100.00;100441.69;5165804;28;20133;-72
2022/12/21 06:33:40;;;;;;;3.63;1.60;;;9.70;99.90;;;9.70;100.00;100445.94;5165937;28;20038;-69
2022/12/21 06:36:13;;;;;;;2.28;1.10;;;9.70;99.90;;;9.72;100.00;100446.91;5164240;28;20050;-70
2022/12/21 06:38:46;;;;;;;3.38;1.30;;;9.70;99.90;;;9.79;100.00;100444.53;5165202;28;20463;-70
2022/12/21 06:41:19;;;;;;;2.97;1.45;;;9.70;99.90;;;9.84;100.00;100457.69;5163967;28;20051;-71
2022/12/21 06:43:53;;;;;;;3.13;1.40;;;9.80;99.90;;;9.89;100.00;100453.50;5163706;28;20523;-71
2022/12/21 06:46:25;;;;;;;3.42;1.77;;;9.90;99.90;;;9.93;100.00;100457.09;5165069;28;20069;-71
2022/12/21 06:48:57;;;;;;;3.45;1.98;;;9.90;99.90;;;9.97;100.00;100451.16;5165079;28;20058;-71
2022/12/21 06:51:30;;;;;;;3.38;1.75;;;10.00;99.90;;;10.00;100.00;100459.06;5165166;28;20495;-72
2022/12/21 06:54:03;;;;;;;2.78;1.52;;;10.00;99.90;;;10.02;100.00;100452.19;5165174;28;20046;-71
2022/12/21 06:56:35;;;;;;;3.40;1.45;;;10.00;99.90;;;10.05;100.00;100455.78;5164871;28;20050;-72
2022/12/21 06:59:09;;;;;;;3.42;1.75;;;10.10;99.90;;;10.10;100.00;100460.22;5165184;28;20380;-70
2022/12/21 07:01:42;;;;;;;3.47;1.52;;;10.10;99.90;;;10.12;100.00;100459.47;5163649;28;20495;-71
2022/12/21 07:04:14;;;;;;;2.47;1.60;;;10.10;99.90;;;10.15;100.00;100453.44;5164982;28;20045;-61
2022/12/21 07:06:48;;;;;;;2.28;1.60;;;10.20;99.90;;;10.17;100.00;100457.91;5164869;28;20038;-60
2022/12/21 07:09:20;;;;;;;3.60;2.22;;;10.20;99.90;;;10.20;100.00;100455.38;5164523;28;20074;-60
2022/12/21 07:11:52;;;;;;;3.92;2.35;;;10.30;99.90;;;10.23;100.00;100457.19;5165049;28;20053;-60
2022/12/21 07:14:26;;;;;;;3.53;2.22;;;10.30;99.90;;;10.27;100.00;100461.69;5164677;28;20089;-61
2022/12/21 07:16:58;;;;;;;3.60;2.33;;;10.30;99.90;;;10.27;100.00;100456.47;5164306;28;20038;-59
2022/12/21 07:19:30;;;;;;;4.65;2.53;;;10.30;99.90;;;10.28;100.00;100461.72;5164290;28;20046;-60
2022/12/21 07:22:02;;;;;;;3.33;2.10;;;10.30;99.90;;;10.30;100.00;100461.75;5164243;28;20458;-59
2022/12/21 07:24:34;;;;;;;2.90;1.92;;;10.30;99.90;;;10.30;100.00;100460.06;5163996;28;20042;-60
2022/12/21 07:27:06;;;;;;;2.63;1.73;;;10.30;99.90;;;10.32;100.00;100457.50;5164027;28;20050;-61
2022/12/21 07:29:40;;;;;;;2.67;1.70;;;10.30;99.90;;;10.33;100.00;100464.47;5164181;28;20050;-61
2022/12/21 07:32:12;;;;;;;4.05;2.05;;;10.40;99.90;;;10.32;100.00;100463.59;5164798;28;20627;-60
2022/12/21 07:34:44;;;;;;;2.78;1.73;;;10.40;99.90;;;10.32;100.00;100458.38;5163650;28;20492;-61
2022/12/21 07:37:16;;;;;;;3.03;2.10;;;10.40;99.90;;;10.32;100.00;100461.00;5164175;28;20451;-60
2022/12/21 07:39:48;;;;;;;4.30;2.55;;;10.30;99.90;;;10.35;100.00;100470.59;5163799;28;20053;-60
2022/12/21 07:42:20;;;;;;;3.95;2.53;;;10.40;99.90;;;10.35;100.00;100465.41;5164026;28;20046;-61
2022/12/21 07:45:19;;;;;;;4.10;2.45;;;10.40;99.90;;;10.35;100.00;100470.59;5162345;28;20057;-60
2022/12/21 07:47:56;;;;;;;3.17;1.60;;;10.40;99.90;;;10.37;100.00;100470.66;5162484;28;20406;-61
2022/12/21 07:50:28;;;;;;;2.80;2.20;;;10.40;99.90;;;10.39;100.00;100479.41;5163734;28;20050;-61
2022/12/21 07:53:01;;;;;;;3.60;2.42;;;10.40;99.90;;;10.38;100.00;100478.53;5163809;28;20042;-60
2022/12/21 07:55:33;;;;;;;2.60;1.88;;;10.40;99.90;;;10.37;100.00;100476.78;5163500;28;20376;-61
2022/12/21 07:58:05;;;;;;;3.88;2.38;;;10.40;99.90;;;10.38;100.00;100473.31;5164036;28;20049;-62
2022/12/21 08:00:39;;;;;;;3.60;2.33;;;10.40;99.90;;;10.36;100.00;100472.38;5163628;28;20046;-61
2022/12/21 08:03:11;;;;;;;3.58;2.05;;;10.40;99.90;;;10.38;100.00;100472.44;5163594;28;20046;-59
2022/12/21 08:05:44;;;;;;;4.28;2.30;;;10.40;99.90;;;10.39;100.00;100480.28;5163649;28;20099;-60
2022/12/21 08:08:16;;;;;;;3.35;2.00;;;10.40;99.90;;;10.40;100.00;100476.84;5163452;28;20042;-59
2022/12/21 08:10:48;;;;;;;3.28;1.95;;;10.40;99.90;;;10.42;100.00;100487.31;5163650;28;20053;-59
2022/12/21 08:13:20;;;;;;;2.55;1.80;;;10.40;99.90;;;10.43;100.00;100489.06;5163389;28;20050;-61
2022/12/21 08:16:01;;;;;;;2.47;1.55;;;10.40;99.90;;;10.62;100.00;100494.00;5163370;28;20418;-59
2022/12/21 08:18:33;;;;;;;2.83;1.63;;;10.60;99.90;;;10.69;100.00;100495.06;5163610;28;20057;-59
2022/12/21 08:21:05;;;;;;;2.47;1.67;;;10.70;99.90;;;10.70;100.00;100499.47;5163289;28;20038;-59
2022/12/21 08:23:37;;;;;;;3.25;1.40;;;10.70;99.90;;;10.68;100.00;100499.41;5163324;28;20410;-58
2022/12/21 08:26:12;;;;;;;1.40;1.02;;;10.70;99.90;;;10.67;100.00;100501.97;5163126;28;20045;-61
2022/12/21 08:28:47;;;;;;;3.88;1.58;;;10.70;99.90;;;10.65;100.00;100514.09;5163531;28;20072;-60
2022/12/21 08:31:20;;;;;;;2.88;1.55;;;10.70;99.90;;;10.64;100.00;100507.09;5163462;28;20058;-60
2022/12/21 08:33:53;;;;;;;1.80;1.30;;;10.70;99.90;;;10.64;100.00;100512.31;5163296;28;20046;-60
2022/12/21 08:36:26;;;;;;;3.05;1.65;;;10.60;99.90;;;10.63;100.00;100518.34;5163473;28;20402;-60
2022/12/21 08:38:58;;;;;;;1.90;1.30;;;10.60;99.90;;;10.63;100.00;100511.44;5163404;28;20607;-59
2022/12/21 08:41:30;;;;;;;2.05;1.42;;;10.60;99.90;;;10.63;100.00;100518.34;5163067;28;20403;-60
2022/12/21 08:44:02;;;;;;;2.20;1.40;;;10.60;99.90;;;10.64;100.00;100528.84;5163111;28;20043;-59
2022/12/21 08:46:36;;;;;;;1.45;1.10;;;10.60;99.90;;;10.64;100.00;100522.75;5180670;28;20054;-60
2022/12/21 08:49:08;;;;;;;1.83;1.50;;;10.60;99.90;;;10.64;100.00;100513.19;5167526;28;20040;-62
2022/12/21 08:51:40;;;;;;;2.90;1.70;;;10.60;99.90;;;10.65;100.00;100520.19;5167176;28;20410;-59
2022/12/21 08:54:12;;;;;;;3.90;2.10;;;10.70;99.90;;;10.67;100.00;100521.09;5166948;28;20046;-58
2022/12/21 08:56:44;;;;;;;2.47;1.52;;;10.60;99.90;;;10.71;100.00;100519.47;5166537;28;20042;-60
2022/12/21 08:59:16;;;;;;;3.13;1.70;;;10.70;99.90;;;10.75;100.00;100518.72;5165670;28;20407;-59
2022/12/21 09:01:52;;;;;;;1.88;1.48;;;10.70;99.90;;;10.78;100.00;100526.66;5166859;28;20418;-59
2022/12/21 09:04:24;;;;;;;3.75;1.80;;;10.70;99.90;;;10.79;100.00;100533.63;5166968;28;20054;-59
2022/12/21 09:06:56;;;;;;;1.70;1.40;;;10.70;99.90;;;10.78;100.00;100527.53;5166831;28;20225;-59
2022/12/21 09:09:28;;;;;;;2.45;1.60;;;10.70;99.90;;;10.79;100.00;100533.63;5167065;28;20073;-60
2022/12/21 09:12:00;;;;;;;2.47;1.63;;;10.80;99.90;;;10.78;100.00;100539.69;5166781;28;20050;-59
2022/12/21 09:14:33;;;;;;;2.40;1.50;;;10.80;99.90;;;10.79;100.00;100551.88;5166935;28;20069;-58
2022/12/21 09:17:06;;;;;;;3.05;1.60;;;10.70;99.90;;;10.79;100.00;100555.34;5166740;28;20046;-60
2022/12/21 09:19:39;;;;;;;2.70;1.33;;;10.80;99.90;;;10.80;100.00;100551.91;5166388;28;20054;-59
2022/12/21 09:22:12;;;;;;;2.50;1.73;;;10.80;99.90;;;10.79;100.00;100539.72;5166469;28;20046;-59
2022/12/21 09:24:44;;;;;;;3.35;1.60;;;10.80;99.90;;;10.82;100.00;100533.69;5166663;28;20085;-59
2022/12/21 09:27:16;;;;;;;2.13;1.42;;;10.80;99.90;;;10.87;100.00;100545.16;5166529;28;20117;-59
2022/12/21 09:29:48;;;;;;;1.55;1.13;;;10.80;99.90;;;10.92;100.00;100548.78;5166430;28;20137;-59
2022/12/21 09:32:21;;;;;;;2.33;1.55;;;10.80;99.90;;;10.99;100.00;100552.47;5166466;28;20046;-58
2022/12/21 09:34:54;;;;;;;2.20;1.38;;;10.90;99.90;;;11.02;100.00;100550.84;5165108;28;20066;-60
2022/12/21 09:37:26;;;;;;;1.83;1.20;;;10.90;99.90;;;11.06;100.00;100533.53;5164828;28;20677;-59
2022/12/21 09:39:58;;;;;;;2.40;1.40;;;11.00;99.90;;;11.11;100.00;100548.47;5166210;28;20050;-58
2022/12/21 09:42:39;;;;;;;1.70;1.25;;;11.00;99.90;;;11.12;100.00;100550.25;5166430;28;20429;-57
2022/12/21 09:45:19;;;;;;;1.60;1.05;;;11.10;99.90;;;11.11;100.00;100547.59;5164754;28;20137;-60
2022/12/21 09:47:58;;;;;;;2.53;1.30;;;11.00;99.90;;;11.12;100.00;100539.81;5166089;28;20104;-61
2022/12/21 09:50:37;;;;;;;4.45;1.45;;;11.10;99.90;;;11.35;100.00;100537.84;5164735;28;20137;-59
2022/12/21 09:53:19;;;;;;;2.08;1.25;;;11.30;99.90;;;11.47;100.00;100537.28;5166225;28;20043;-59
2022/12/21 09:55:54;;;;;;;2.17;1.20;;;11.40;99.90;;;11.47;100.00;100537.28;5166009;28;20042;-59
2022/12/21 09:58:35;;;;;;;2.47;1.58;;;11.50;99.90;;;11.52;100.00;100540.91;5164665;28;20061;-59
2022/12/21 10:01:18;;;;;;;1.40;1.30;;;11.50;99.90;;;11.62;100.00;100556.00;5166021;28;20061;-59
2022/12/21 10:04:18;;;;;;;1.60;0.93;;;11.60;99.90;;;11.69;100.00;100565.75;5165859;28;20050;-60
2022/12/21 10:07:07;;;;;;;1.13;1.02;;;11.60;99.90;;;11.71;100.00;100567.50;5165521;28;20050;-59
2022/12/21 10:09:57;;;;;;;1.42;1.10;;;11.60;99.90;;;11.65;100.00;100566.50;5165492;28;20050;-59
2022/12/21 10:12:37;;;;;;;2.03;1.10;;;11.70;99.90;;;11.58;100.00;100564.56;5165956;28;20053;-60
2022/12/21 10:15:27;;;;;;;2.33;1.25;;;11.60;99.90;;;11.52;100.00;100571.34;5166064;28;20143;-60
2022/12/21 10:18:10;;;;;;;2.97;1.83;;;11.60;99.90;;;11.44;100.00;100568.53;5165829;28;20050;-59
2022/12/21 10:20:54;;;;;;;3.33;2.13;;;11.50;99.90;;;11.34;100.00;100577.81;5165496;28;20050;-59
2022/12/21 10:23:29;;;;;;;4.45;2.17;;;11.40;99.90;;;11.25;100.00;100576.69;5165571;28;20042;-59
2022/12/21 10:26:05;;;;;;;7.13;3.10;;;11.30;99.90;;;11.18;100.00;100585.19;5163629;28;20388;-58
2022/12/21 10:28:45;;;;;;;8.15;3.40;;;11.30;99.90;;;11.09;100.00;100583.19;5180377;28;20052;-59
2022/12/21 10:31:25;;;;;;;7.32;3.00;;;11.20;99.90;;;11.02;100.00;100589.97;5163852;28;20093;-58
2022/12/21 10:33:58;;;;;;;6.88;3.40;;;11.10;99.90;;;10.95;100.00;100587.09;5163706;28;20039;-59
2022/12/21 10:36:37;;;;;;;8.40;3.92;;;11.00;99.90;;;10.87;100.00;100606.00;5164000;28;20408;-59
2022/12/21 10:39:16;;;;;;;6.90;3.60;;;10.90;99.90;;;10.81;100.00;100600.59;5164561;28;20515;-60
2022/12/21 10:41:54;;;;;;;6.55;3.63;;;10.90;99.90;;;10.76;100.00;100601.34;5165099;28;20049;-60
2022/12/21 10:44:26;;;;;;;7.47;3.25;;;10.80;99.90;;;10.75;100.00;100600.41;5161304;28;20046;-60
2022/12/21 10:46:59;;;;;;;9.07;4.22;;;10.80;99.90;;;10.74;100.00;100595.16;5164919;28;20447;-60
2022/12/21 10:49:38;;;;;;;7.60;3.70;;;10.80;99.90;;;10.73;100.00;100607.31;5164425;28;20049;-60
2022/12/21 10:52:45;;;;;;;7.00;3.30;;;10.80;99.90;;;10.79;100.00;100601.41;5163189;28;20053;-62
2022/12/21 10:55:32;;;;;;;8.25;3.78;;;10.80;99.90;;;10.81;100.00;100602.34;5105303;28;20058;-58